Time;durP1;ratioP1;P1;durP2;ratioP2;P2;SDS_P1;SDS_P2;PMS_P1;PMS_P2;Temp;Humidity;BMP_temperature;BMP_pressure;BME280_temperature;BME280_humidity;BME280_pressure;Samples;Min_cycle;Max_cycle;Signal;HPM_P1;HPM_P2
2020/12/04 00:00:53;;;;;;;35.45;17.6;;;;;;;-3.79;82.91406;93056.25;;;;
2020/12/04 00:01:55;;;;;;;36.55;18.05;;;;;;;-3.7;83.01563;93050.66;;;;
2020/12/04 00:02:56;;;;;;;36.55;18.05;;;;;;;-3.7;83.01563;93050.66;;;;
2020/12/04 00:03:57;;;;;;;36.55;18.05;;;;;;;-3.7;83.01563;93050.66;;;;
2020/12/04 00:04:57;;;;;;;36.55;18.05;;;;;;;-3.7;83.01563;93050.66;;;;
2020/12/04 00:05:58;;;;;;;36.55;18.05;;;;;;;-3.7;83.01563;93050.66;;;;
2020/12/04 00:06:59;;;;;;;36.55;18.05;;;;;;;-3.7;83.01563;93050.66;;;;
2020/12/04 00:08:00;;;;;;;36.55;18.05;;;;;;;-3.7;83.01563;93050.66;;;;
2020/12/04 00:09:02;;;;;;;36.55;18.05;;;;;;;-3.7;83.01563;93050.66;;;;
2020/12/04 00:10:03;;;;;;;36.55;18.05;;;;;;;-3.7;83.01563;93050.66;;;;
2020/12/04 00:11:05;;;;;;;36.55;18.05;;;;;;;-3.7;83.01563;93050.66;;;;
2020/12/04 00:12:06;;;;;;;36.55;18.05;;;;;;;-3.7;83.01563;93050.66;;;;
2020/12/04 00:13:06;;;;;;;37.65;17.9;;;;;;;-3.51;83.07324;93052.06;;;;
2020/12/04 00:14:07;;;;;;;37.65;17.9;;;;;;;-3.51;83.07324;93052.06;;;;
2020/12/04 00:15:08;;;;;;;37.65;17.9;;;;;;;-3.51;83.07324;93052.06;;;;
2020/12/04 00:16:09;;;;;;;37.65;17.9;;;;;;;-3.51;83.07324;93052.06;;;;
2020/12/04 00:17:09;;;;;;;37.65;17.9;;;;;;;-3.51;83.07324;93052.06;;;;
2020/12/04 00:18:11;;;;;;;37.65;17.9;;;;;;;-3.51;83.07324;93052.06;;;;
2020/12/04 00:19:12;;;;;;;37.65;17.9;;;;;;;-3.51;83.07324;93052.06;;;;
2020/12/04 00:20:13;;;;;;;37.65;17.9;;;;;;;-3.51;83.07324;93052.06;;;;
2020/12/04 00:21:14;;;;;;;37.65;17.9;;;;;;;-3.51;83.07324;93052.06;;;;
2020/12/04 00:22:15;;;;;;;37.65;17.9;;;;;;;-3.51;83.07324;93052.06;;;;
2020/12/04 00:23:15;;;;;;;33;16.85;;;;;;;-3.33;82.91211;93045.62;;;;
2020/12/04 00:24:16;;;;;;;33;16.85;;;;;;;-3.33;82.91211;93045.62;;;;
2020/12/04 00:25:17;;;;;;;33;16.85;;;;;;;-3.33;82.91211;93045.62;;;;
2020/12/04 00:26:19;;;;;;;33;16.85;;;;;;;-3.33;82.91211;93045.62;;;;
2020/12/04 00:27:19;;;;;;;33;16.85;;;;;;;-3.33;82.91211;93045.62;;;;
2020/12/04 00:28:20;;;;;;;33;16.85;;;;;;;-3.33;82.91211;93045.62;;;;
2020/12/04 00:29:20;;;;;;;33;16.85;;;;;;;-3.33;82.91211;93045.62;;;;
2020/12/04 00:30:22;;;;;;;33;16.85;;;;;;;-3.33;82.91211;93045.62;;;;
2020/12/04 00:31:23;;;;;;;33;16.85;;;;;;;-3.33;82.91211;93045.62;;;;
2020/12/04 00:32:23;;;;;;;33;16.85;;;;;;;-3.33;82.91211;93045.62;;;;
2020/12/04 00:33:24;;;;;;;33;16.85;;;;;;;-3.33;82.91211;93045.62;;;;
2020/12/04 00:34:24;;;;;;;34.95;17.05;;;;;;;-3.27;82.88184;93034.64;;;;
2020/12/04 00:35:26;;;;;;;34.95;17.05;;;;;;;-3.27;82.88184;93034.64;;;;
2020/12/04 00:36:28;;;;;;;34.95;17.05;;;;;;;-3.27;82.88184;93034.64;;;;
2020/12/04 00:37:29;;;;;;;34.95;17.05;;;;;;;-3.27;82.88184;93034.64;;;;
2020/12/04 00:38:29;;;;;;;34.95;17.05;;;;;;;-3.27;82.88184;93034.64;;;;
2020/12/04 00:39:30;;;;;;;34.95;17.05;;;;;;;-3.27;82.88184;93034.64;;;;
2020/12/04 00:40:31;;;;;;;34.95;17.05;;;;;;;-3.27;82.88184;93034.64;;;;
2020/12/04 00:41:31;;;;;;;34.95;17.05;;;;;;;-3.27;82.88184;93034.64;;;;
2020/12/04 00:42:32;;;;;;;34.95;17.05;;;;;;;-3.27;82.88184;93034.64;;;;
2020/12/04 00:43:33;;;;;;;34.95;17.05;;;;;;;-3.27;82.88184;93034.64;;;;
2020/12/04 00:44:33;;;;;;;32.55;15.4;;;;;;;-3.18;83.03223;93017.15;;;;
2020/12/04 00:45:34;;;;;;;32.55;15.4;;;;;;;-3.18;83.03223;93017.15;;;;
2020/12/04 00:46:34;;;;;;;32.55;15.4;;;;;;;-3.18;83.03223;93017.15;;;;
2020/12/04 00:47:36;;;;;;;32.55;15.4;;;;;;;-3.18;83.03223;93017.15;;;;
2020/12/04 00:48:36;;;;;;;32.55;15.4;;;;;;;-3.18;83.03223;93017.15;;;;
2020/12/04 00:49:37;;;;;;;32.55;15.4;;;;;;;-3.18;83.03223;93017.15;;;;
2020/12/04 00:50:38;;;;;;;32.55;15.4;;;;;;;-3.18;83.03223;93017.15;;;;
2020/12/04 00:51:38;;;;;;;32.55;15.4;;;;;;;-3.18;83.03223;93017.15;;;;
2020/12/04 00:52:39;;;;;;;32.55;15.4;;;;;;;-3.18;83.03223;93017.15;;;;
2020/12/04 00:53:39;;;;;;;32.55;15.4;;;;;;;-3.18;83.03223;93017.15;;;;
2020/12/04 00:54:40;;;;;;;32.55;15.4;;;;;;;-3.18;83.03223;93017.15;;;;
2020/12/04 00:55:41;;;;;;;31.05;15.75;;;;;;;-3.1;83.15234;93000.69;;;;
2020/12/04 00:56:41;;;;;;;31.05;15.75;;;;;;;-3.1;83.15234;93000.69;;;;
2020/12/04 00:57:41;;;;;;;31.05;15.75;;;;;;;-3.1;83.15234;93000.69;;;;
2020/12/04 00:58:42;;;;;;;31.05;15.75;;;;;;;-3.1;83.15234;93000.69;;;;
2020/12/04 00:59:42;;;;;;;31.05;15.75;;;;;;;-3.1;83.15234;93000.69;;;;
2020/12/04 01:00:43;;;;;;;31.05;15.75;;;;;;;-3.1;83.15234;93000.69;;;;
2020/12/04 01:01:43;;;;;;;31.05;15.75;;;;;;;-3.1;83.15234;93000.69;;;;
2020/12/04 01:02:44;;;;;;;31.05;15.75;;;;;;;-3.1;83.15234;93000.69;;;;
2020/12/04 01:03:44;;;;;;;31.05;15.75;;;;;;;-3.1;83.15234;93000.69;;;;
2020/12/04 01:04:45;;;;;;;31.05;15.75;;;;;;;-3.1;83.15234;93000.69;;;;
2020/12/04 01:05:45;;;;;;;30.15;15.55;;;;;;;-2.95;82.9541;92980.13;;;;
2020/12/04 01:06:46;;;;;;;30.15;15.55;;;;;;;-2.95;82.9541;92980.13;;;;
2020/12/04 01:07:46;;;;;;;30.15;15.55;;;;;;;-2.95;82.9541;92980.13;;;;
2020/12/04 01:08:46;;;;;;;30.15;15.55;;;;;;;-2.95;82.9541;92980.13;;;;
2020/12/04 01:09:47;;;;;;;30.15;15.55;;;;;;;-2.95;82.9541;92980.13;;;;
2020/12/04 01:10:47;;;;;;;30.15;15.55;;;;;;;-2.95;82.9541;92980.13;;;;
2020/12/04 01:11:48;;;;;;;30.15;15.55;;;;;;;-2.95;82.9541;92980.13;;;;
2020/12/04 01:12:50;;;;;;;30.15;15.55;;;;;;;-2.95;82.9541;92980.13;;;;
2020/12/04 01:13:51;;;;;;;30.15;15.55;;;;;;;-2.95;82.9541;92980.13;;;;
2020/12/04 01:14:51;;;;;;;30.15;15.55;;;;;;;-2.95;82.9541;92980.13;;;;
2020/12/04 01:15:52;;;;;;;30.15;15.55;;;;;;;-2.95;82.9541;92980.13;;;;
2020/12/04 01:16:52;;;;;;;29.25;15.35;;;;;;;-2.91;82.72363;92968.09;;;;
2020/12/04 01:17:53;;;;;;;29.25;15.35;;;;;;;-2.91;82.72363;92968.09;;;;
2020/12/04 01:18:54;;;;;;;29.25;15.35;;;;;;;-2.91;82.72363;92968.09;;;;
2020/12/04 01:19:54;;;;;;;29.25;15.35;;;;;;;-2.91;82.72363;92968.09;;;;
2020/12/04 01:20:54;;;;;;;29.25;15.35;;;;;;;-2.91;82.72363;92968.09;;;;
2020/12/04 01:21:55;;;;;;;29.25;15.35;;;;;;;-2.91;82.72363;92968.09;;;;
2020/12/04 01:22:55;;;;;;;29.25;15.35;;;;;;;-2.91;82.72363;92968.09;;;;
2020/12/04 01:23:56;;;;;;;29.25;15.35;;;;;;;-2.91;82.72363;92968.09;;;;
2020/12/04 01:24:56;;;;;;;29.25;15.35;;;;;;;-2.91;82.72363;92968.09;;;;
2020/12/04 01:25:57;;;;;;;29.25;15.35;;;;;;;-2.91;82.72363;92968.09;;;;
2020/12/04 01:26:58;;;;;;;30.25;15.15;;;;;;;-2.98;82.80469;92970.78;;;;
2020/12/04 01:27:58;;;;;;;30.25;15.15;;;;;;;-2.98;82.80469;92970.78;;;;
2020/12/04 01:28:58;;;;;;;30.25;15.15;;;;;;;-2.98;82.80469;92970.78;;;;
2020/12/04 01:29:59;;;;;;;30.25;15.15;;;;;;;-2.98;82.80469;92970.78;;;;
2020/12/04 01:30:59;;;;;;;30.25;15.15;;;;;;;-2.98;82.80469;92970.78;;;;
2020/12/04 01:32:00;;;;;;;30.25;15.15;;;;;;;-2.98;82.80469;92970.78;;;;
2020/12/04 01:33:00;;;;;;;30.25;15.15;;;;;;;-2.98;82.80469;92970.78;;;;
2020/12/04 01:34:01;;;;;;;30.25;15.15;;;;;;;-2.98;82.80469;92970.78;;;;
2020/12/04 01:35:02;;;;;;;30.25;15.15;;;;;;;-2.98;82.80469;92970.78;;;;
2020/12/04 01:36:02;;;;;;;30.25;15.15;;;;;;;-2.98;82.80469;92970.78;;;;
2020/12/04 01:37:03;;;;;;;30.25;15.15;;;;;;;-2.98;82.80469;92970.78;;;;
2020/12/04 01:38:04;;;;;;;30.3;14.05;;;;;;;-3.09;82.9375;92961.8;;;;
2020/12/04 01:39:04;;;;;;;30.3;14.05;;;;;;;-3.09;82.9375;92961.8;;;;
2020/12/04 01:40:05;;;;;;;30.3;14.05;;;;;;;-3.09;82.9375;92961.8;;;;
2020/12/04 01:41:05;;;;;;;30.3;14.05;;;;;;;-3.09;82.9375;92961.8;;;;
2020/12/04 01:42:06;;;;;;;30.3;14.05;;;;;;;-3.09;82.9375;92961.8;;;;
2020/12/04 01:43:06;;;;;;;30.3;14.05;;;;;;;-3.09;82.9375;92961.8;;;;
2020/12/04 01:44:07;;;;;;;30.3;14.05;;;;;;;-3.09;82.9375;92961.8;;;;
2020/12/04 01:45:08;;;;;;;30.3;14.05;;;;;;;-3.09;82.9375;92961.8;;;;
2020/12/04 01:46:08;;;;;;;30.3;14.05;;;;;;;-3.09;82.9375;92961.8;;;;
2020/12/04 01:47:08;;;;;;;30.3;14.05;;;;;;;-3.09;82.9375;92961.8;;;;
2020/12/04 01:48:09;;;;;;;30.3;14.05;;;;;;;-3.09;82.9375;92961.8;;;;
2020/12/04 01:49:11;;;;;;;27.4;14.05;;;;;;;-3.29;83.12598;92956.74;;;;
2020/12/04 01:50:11;;;;;;;27.4;14.05;;;;;;;-3.29;83.12598;92956.74;;;;
2020/12/04 01:51:12;;;;;;;27.4;14.05;;;;;;;-3.29;83.12598;92956.74;;;;
2020/12/04 01:52:12;;;;;;;27.4;14.05;;;;;;;-3.29;83.12598;92956.74;;;;
2020/12/04 01:53:14;;;;;;;27.4;14.05;;;;;;;-3.29;83.12598;92956.74;;;;
2020/12/04 01:54:14;;;;;;;27.4;14.05;;;;;;;-3.29;83.12598;92956.74;;;;
2020/12/04 01:55:15;;;;;;;27.4;14.05;;;;;;;-3.29;83.12598;92956.74;;;;
2020/12/04 01:56:16;;;;;;;27.4;14.05;;;;;;;-3.29;83.12598;92956.74;;;;
2020/12/04 01:57:16;;;;;;;27.4;14.05;;;;;;;-3.29;83.12598;92956.74;;;;
2020/12/04 01:58:19;;;;;;;27.4;14.05;;;;;;;-3.29;83.12598;92956.74;;;;
2020/12/04 01:59:20;;;;;;;32.85;15.05;;;;;;;-3.52;83.48242;92953.77;;;;
2020/12/04 02:00:21;;;;;;;32.85;15.05;;;;;;;-3.52;83.48242;92953.77;;;;
2020/12/04 02:01:21;;;;;;;32.85;15.05;;;;;;;-3.52;83.48242;92953.77;;;;
2020/12/04 02:02:22;;;;;;;32.85;15.05;;;;;;;-3.52;83.48242;92953.77;;;;
2020/12/04 02:03:23;;;;;;;32.85;15.05;;;;;;;-3.52;83.48242;92953.77;;;;
2020/12/04 02:04:23;;;;;;;32.85;15.05;;;;;;;-3.52;83.48242;92953.77;;;;
2020/12/04 02:05:24;;;;;;;32.85;15.05;;;;;;;-3.52;83.48242;92953.77;;;;
2020/12/04 02:06:24;;;;;;;32.85;15.05;;;;;;;-3.52;83.48242;92953.77;;;;
2020/12/04 02:07:34;;;;;;;32.85;15.05;;;;;;;-3.52;83.48242;92953.77;;;;
2020/12/04 02:08:41;;;;;;;32.85;15.05;;;;;;;-3.52;83.48242;92953.77;;;;
2020/12/04 02:09:47;;;;;;;35.2;15.4;;;;;;;-3.71;83.68359;92928.58;;;;
2020/12/04 02:10:52;;;;;;;35.2;15.4;;;;;;;-3.71;83.68359;92928.58;;;;
2020/12/04 02:11:59;;;;;;;35.2;15.4;;;;;;;-3.71;83.68359;92928.58;;;;
2020/12/04 02:13:04;;;;;;;35.2;15.4;;;;;;;-3.71;83.68359;92928.58;;;;
2020/12/04 02:14:05;;;;;;;35.2;15.4;;;;;;;-3.71;83.68359;92928.58;;;;
2020/12/04 02:15:08;;;;;;;35.2;15.4;;;;;;;-3.71;83.68359;92928.58;;;;
2020/12/04 02:16:09;;;;;;;35.2;15.4;;;;;;;-3.71;83.68359;92928.58;;;;
2020/12/04 02:17:11;;;;;;;35.2;15.4;;;;;;;-3.71;83.68359;92928.58;;;;
2020/12/04 02:18:11;;;;;;;35.2;15.4;;;;;;;-3.71;83.68359;92928.58;;;;
2020/12/04 02:19:13;;;;;;;35.2;15.4;;;;;;;-3.71;83.68359;92928.58;;;;
2020/12/04 02:20:14;;;;;;;30;15.65;;;;;;;-3.8;83.94238;92910.58;;;;
2020/12/04 02:21:14;;;;;;;30;15.65;;;;;;;-3.8;83.94238;92910.58;;;;
2020/12/04 02:22:15;;;;;;;30;15.65;;;;;;;-3.8;83.94238;92910.58;;;;
2020/12/04 02:23:15;;;;;;;30;15.65;;;;;;;-3.8;83.94238;92910.58;;;;
2020/12/04 02:24:16;;;;;;;30;15.65;;;;;;;-3.8;83.94238;92910.58;;;;
2020/12/04 02:25:24;;;;;;;30;15.65;;;;;;;-3.8;83.94238;92910.58;;;;
2020/12/04 02:26:25;;;;;;;30;15.65;;;;;;;-3.8;83.94238;92910.58;;;;
2020/12/04 02:27:27;;;;;;;30;15.65;;;;;;;-3.8;83.94238;92910.58;;;;
2020/12/04 02:28:28;;;;;;;30;15.65;;;;;;;-3.8;83.94238;92910.58;;;;
2020/12/04 02:29:31;;;;;;;30;15.65;;;;;;;-3.8;83.94238;92910.58;;;;
2020/12/04 02:30:31;;;;;;;30;15.65;;;;;;;-3.8;83.94238;92910.58;;;;
2020/12/04 02:31:35;;;;;;;31.7;15.4;;;;;;;-3.88;83.9375;92898.94;;;;
2020/12/04 02:32:35;;;;;;;31.7;15.4;;;;;;;-3.88;83.9375;92898.94;;;;
2020/12/04 02:33:35;;;;;;;31.7;15.4;;;;;;;-3.88;83.9375;92898.94;;;;
2020/12/04 02:34:36;;;;;;;31.7;15.4;;;;;;;-3.88;83.9375;92898.94;;;;
2020/12/04 02:35:37;;;;;;;31.7;15.4;;;;;;;-3.88;83.9375;92898.94;;;;
2020/12/04 02:36:37;;;;;;;31.7;15.4;;;;;;;-3.88;83.9375;92898.94;;;;
2020/12/04 02:37:38;;;;;;;31.7;15.4;;;;;;;-3.88;83.9375;92898.94;;;;
2020/12/04 02:38:38;;;;;;;31.7;15.4;;;;;;;-3.88;83.9375;92898.94;;;;
2020/12/04 02:39:39;;;;;;;31.7;15.4;;;;;;;-3.88;83.9375;92898.94;;;;
2020/12/04 02:40:39;;;;;;;31.7;15.4;;;;;;;-3.88;83.9375;92898.94;;;;
2020/12/04 02:41:40;;;;;;;33.25;15.3;;;;;;;-4;83.96484;92881.75;;;;
2020/12/04 02:42:44;;;;;;;33.25;15.3;;;;;;;-4;83.96484;92881.75;;;;
2020/12/04 02:43:44;;;;;;;33.25;15.3;;;;;;;-4;83.96484;92881.75;;;;
2020/12/04 02:44:45;;;;;;;33.25;15.3;;;;;;;-4;83.96484;92881.75;;;;
2020/12/04 02:45:45;;;;;;;33.25;15.3;;;;;;;-4;83.96484;92881.75;;;;
2020/12/04 02:46:46;;;;;;;33.25;15.3;;;;;;;-4;83.96484;92881.75;;;;
2020/12/04 02:47:47;;;;;;;33.25;15.3;;;;;;;-4;83.96484;92881.75;;;;
2020/12/04 02:48:47;;;;;;;33.25;15.3;;;;;;;-4;83.96484;92881.75;;;;
2020/12/04 02:49:48;;;;;;;33.25;15.3;;;;;;;-4;83.96484;92881.75;;;;
2020/12/04 02:50:48;;;;;;;33.25;15.3;;;;;;;-4;83.96484;92881.75;;;;
2020/12/04 02:51:49;;;;;;;33.25;15.3;;;;;;;-4;83.96484;92881.75;;;;
2020/12/04 02:52:50;;;;;;;30.8;15.75;;;;;;;-4.06;84.05664;92864.12;;;;
2020/12/04 02:53:52;;;;;;;30.8;15.75;;;;;;;-4.06;84.05664;92864.12;;;;
2020/12/04 02:54:52;;;;;;;30.8;15.75;;;;;;;-4.06;84.05664;92864.12;;;;
2020/12/04 02:55:53;;;;;;;30.8;15.75;;;;;;;-4.06;84.05664;92864.12;;;;
2020/12/04 02:56:53;;;;;;;30.8;15.75;;;;;;;-4.06;84.05664;92864.12;;;;
2020/12/04 02:57:54;;;;;;;30.8;15.75;;;;;;;-4.06;84.05664;92864.12;;;;
2020/12/04 02:58:54;;;;;;;30.8;15.75;;;;;;;-4.06;84.05664;92864.12;;;;
2020/12/04 02:59:55;;;;;;;30.8;15.75;;;;;;;-4.06;84.05664;92864.12;;;;
2020/12/04 03:00:55;;;;;;;30.8;15.75;;;;;;;-4.06;84.05664;92864.12;;;;
2020/12/04 03:01:56;;;;;;;30.8;15.75;;;;;;;-4.06;84.05664;92864.12;;;;
2020/12/04 03:02:56;;;;;;;33.35;16.6;;;;;;;-4;84.23242;92853.18;;;;
2020/12/04 03:03:57;;;;;;;33.35;16.6;;;;;;;-4;84.23242;92853.18;;;;
2020/12/04 03:04:57;;;;;;;33.35;16.6;;;;;;;-4;84.23242;92853.18;;;;
2020/12/04 03:05:58;;;;;;;33.35;16.6;;;;;;;-4;84.23242;92853.18;;;;
2020/12/04 03:06:58;;;;;;;33.35;16.6;;;;;;;-4;84.23242;92853.18;;;;
2020/12/04 03:07:58;;;;;;;33.35;16.6;;;;;;;-4;84.23242;92853.18;;;;
2020/12/04 03:08:59;;;;;;;33.35;16.6;;;;;;;-4;84.23242;92853.18;;;;
2020/12/04 03:09:59;;;;;;;33.35;16.6;;;;;;;-4;84.23242;92853.18;;;;
2020/12/04 03:11:00;;;;;;;33.35;16.6;;;;;;;-4;84.23242;92853.18;;;;
2020/12/04 03:12:00;;;;;;;33.35;16.6;;;;;;;-4;84.23242;92853.18;;;;
2020/12/04 03:13:01;;;;;;;33.35;16.6;;;;;;;-4;84.23242;92853.18;;;;
2020/12/04 03:14:02;;;;;;;34.65;16.1;;;;;;;-3.91;84.07617;92847.97;;;;
2020/12/04 03:15:03;;;;;;;34.65;16.1;;;;;;;-3.91;84.07617;92847.97;;;;
2020/12/04 03:16:04;;;;;;;34.65;16.1;;;;;;;-3.91;84.07617;92847.97;;;;
2020/12/04 03:17:04;;;;;;;34.65;16.1;;;;;;;-3.91;84.07617;92847.97;;;;
2020/12/04 03:18:05;;;;;;;34.65;16.1;;;;;;;-3.91;84.07617;92847.97;;;;
2020/12/04 03:19:05;;;;;;;34.65;16.1;;;;;;;-3.91;84.07617;92847.97;;;;
2020/12/04 03:20:06;;;;;;;34.65;16.1;;;;;;;-3.91;84.07617;92847.97;;;;
2020/12/04 03:21:06;;;;;;;34.65;16.1;;;;;;;-3.91;84.07617;92847.97;;;;
2020/12/04 03:22:07;;;;;;;34.65;16.1;;;;;;;-3.91;84.07617;92847.97;;;;
2020/12/04 03:23:07;;;;;;;34.65;16.1;;;;;;;-3.91;84.07617;92847.97;;;;
2020/12/04 03:24:08;;;;;;;34.65;16.1;;;;;;;-3.91;84.07617;92847.97;;;;
2020/12/04 03:25:08;;;;;;;29.2;14.85;;;;;;;-3.87;84.02344;92843.38;;;;
2020/12/04 03:26:09;;;;;;;29.2;14.85;;;;;;;-3.87;84.02344;92843.38;;;;
2020/12/04 03:27:09;;;;;;;29.2;14.85;;;;;;;-3.87;84.02344;92843.38;;;;
2020/12/04 03:28:10;;;;;;;29.2;14.85;;;;;;;-3.87;84.02344;92843.38;;;;
2020/12/04 03:29:10;;;;;;;29.2;14.85;;;;;;;-3.87;84.02344;92843.38;;;;
2020/12/04 03:30:11;;;;;;;29.2;14.85;;;;;;;-3.87;84.02344;92843.38;;;;
2020/12/04 03:31:12;;;;;;;29.2;14.85;;;;;;;-3.87;84.02344;92843.38;;;;
2020/12/04 03:32:12;;;;;;;29.2;14.85;;;;;;;-3.87;84.02344;92843.38;;;;
2020/12/04 03:33:13;;;;;;;29.2;14.85;;;;;;;-3.87;84.02344;92843.38;;;;
2020/12/04 03:34:14;;;;;;;29.2;14.85;;;;;;;-3.87;84.02344;92843.38;;;;
2020/12/04 03:35:14;;;;;;;28.2;14.85;;;;;;;-3.79;83.87402;92832.21;;;;
2020/12/04 03:36:15;;;;;;;28.2;14.85;;;;;;;-3.79;83.87402;92832.21;;;;
2020/12/04 03:37:15;;;;;;;28.2;14.85;;;;;;;-3.79;83.87402;92832.21;;;;
2020/12/04 03:38:17;;;;;;;28.2;14.85;;;;;;;-3.79;83.87402;92832.21;;;;
2020/12/04 03:39:17;;;;;;;28.2;14.85;;;;;;;-3.79;83.87402;92832.21;;;;
2020/12/04 03:40:18;;;;;;;28.2;14.85;;;;;;;-3.79;83.87402;92832.21;;;;
2020/12/04 03:41:18;;;;;;;28.2;14.85;;;;;;;-3.79;83.87402;92832.21;;;;
2020/12/04 03:42:18;;;;;;;28.2;14.85;;;;;;;-3.79;83.87402;92832.21;;;;
2020/12/04 03:43:19;;;;;;;28.2;14.85;;;;;;;-3.79;83.87402;92832.21;;;;
2020/12/04 03:44:19;;;;;;;28.2;14.85;;;;;;;-3.79;83.87402;92832.21;;;;
2020/12/04 03:45:20;;;;;;;28.2;14.85;;;;;;;-3.79;83.87402;92832.21;;;;
2020/12/04 03:46:20;;;;;;;31.65;14.8;;;;;;;-3.78;83.80371;92810.13;;;;
2020/12/04 03:47:21;;;;;;;31.65;14.8;;;;;;;-3.78;83.80371;92810.13;;;;
2020/12/04 03:48:21;;;;;;;31.65;14.8;;;;;;;-3.78;83.80371;92810.13;;;;
2020/12/04 03:49:22;;;;;;;31.65;14.8;;;;;;;-3.78;83.80371;92810.13;;;;
2020/12/04 03:50:22;;;;;;;31.65;14.8;;;;;;;-3.78;83.80371;92810.13;;;;
2020/12/04 03:51:23;;;;;;;31.65;14.8;;;;;;;-3.78;83.80371;92810.13;;;;
2020/12/04 03:52:23;;;;;;;31.65;14.8;;;;;;;-3.78;83.80371;92810.13;;;;
2020/12/04 03:53:24;;;;;;;31.65;14.8;;;;;;;-3.78;83.80371;92810.13;;;;
2020/12/04 03:54:24;;;;;;;31.65;14.8;;;;;;;-3.78;83.80371;92810.13;;;;
2020/12/04 03:55:25;;;;;;;31.65;14.8;;;;;;;-3.78;83.80371;92810.13;;;;
2020/12/04 03:56:25;;;;;;;31.1;15.5;;;;;;;-3.72;84.08496;92800.03;;;;
2020/12/04 03:57:26;;;;;;;31.1;15.5;;;;;;;-3.72;84.08496;92800.03;;;;
2020/12/04 03:58:26;;;;;;;31.1;15.5;;;;;;;-3.72;84.08496;92800.03;;;;
2020/12/04 03:59:28;;;;;;;31.1;15.5;;;;;;;-3.72;84.08496;92800.03;;;;
2020/12/04 04:00:28;;;;;;;31.1;15.5;;;;;;;-3.72;84.08496;92800.03;;;;
2020/12/04 04:01:29;;;;;;;31.1;15.5;;;;;;;-3.72;84.08496;92800.03;;;;
2020/12/04 04:02:30;;;;;;;31.1;15.5;;;;;;;-3.72;84.08496;92800.03;;;;
2020/12/04 04:03:30;;;;;;;31.1;15.5;;;;;;;-3.72;84.08496;92800.03;;;;
2020/12/04 04:04:31;;;;;;;31.1;15.5;;;;;;;-3.72;84.08496;92800.03;;;;
2020/12/04 04:05:31;;;;;;;31.1;15.5;;;;;;;-3.72;84.08496;92800.03;;;;
2020/12/04 04:06:32;;;;;;;31.1;15.5;;;;;;;-3.72;84.08496;92800.03;;;;
2020/12/04 04:07:32;;;;;;;28.7;14.65;;;;;;;-3.58;84.01953;92796.3;;;;
2020/12/04 04:08:33;;;;;;;28.7;14.65;;;;;;;-3.58;84.01953;92796.3;;;;
2020/12/04 04:09:33;;;;;;;28.7;14.65;;;;;;;-3.58;84.01953;92796.3;;;;
2020/12/04 04:10:34;;;;;;;28.7;14.65;;;;;;;-3.58;84.01953;92796.3;;;;
2020/12/04 04:11:34;;;;;;;28.7;14.65;;;;;;;-3.58;84.01953;92796.3;;;;
2020/12/04 04:12:35;;;;;;;28.7;14.65;;;;;;;-3.58;84.01953;92796.3;;;;
2020/12/04 04:13:35;;;;;;;28.7;14.65;;;;;;;-3.58;84.01953;92796.3;;;;
2020/12/04 04:14:37;;;;;;;28.7;14.65;;;;;;;-3.58;84.01953;92796.3;;;;
2020/12/04 04:15:37;;;;;;;28.7;14.65;;;;;;;-3.58;84.01953;92796.3;;;;
2020/12/04 04:16:38;;;;;;;28.7;14.65;;;;;;;-3.58;84.01953;92796.3;;;;
2020/12/04 04:17:38;;;;;;;27.45;13.45;;;;;;;-3.36;83.90625;92785.82;;;;
2020/12/04 04:18:39;;;;;;;27.45;13.45;;;;;;;-3.36;83.90625;92785.82;;;;
2020/12/04 04:19:39;;;;;;;27.45;13.45;;;;;;;-3.36;83.90625;92785.82;;;;
2020/12/04 04:20:40;;;;;;;27.45;13.45;;;;;;;-3.36;83.90625;92785.82;;;;
2020/12/04 04:21:40;;;;;;;27.45;13.45;;;;;;;-3.36;83.90625;92785.82;;;;
2020/12/04 04:22:41;;;;;;;27.45;13.45;;;;;;;-3.36;83.90625;92785.82;;;;
2020/12/04 04:23:41;;;;;;;27.45;13.45;;;;;;;-3.36;83.90625;92785.82;;;;
2020/12/04 04:24:42;;;;;;;27.45;13.45;;;;;;;-3.36;83.90625;92785.82;;;;
2020/12/04 04:25:43;;;;;;;27.45;13.45;;;;;;;-3.36;83.90625;92785.82;;;;
2020/12/04 04:26:43;;;;;;;27.45;13.45;;;;;;;-3.36;83.90625;92785.82;;;;
2020/12/04 04:27:44;;;;;;;27.45;13.45;;;;;;;-3.36;83.90625;92785.82;;;;
2020/12/04 04:28:46;;;;;;;25.7;12.85;;;;;;;-3.22;83.60547;92784.59;;;;
2020/12/04 04:29:46;;;;;;;25.7;12.85;;;;;;;-3.22;83.60547;92784.59;;;;
2020/12/04 04:30:47;;;;;;;25.7;12.85;;;;;;;-3.22;83.60547;92784.59;;;;
2020/12/04 04:31:47;;;;;;;25.7;12.85;;;;;;;-3.22;83.60547;92784.59;;;;
2020/12/04 04:32:49;;;;;;;25.7;12.85;;;;;;;-3.22;83.60547;92784.59;;;;
2020/12/04 04:33:50;;;;;;;25.7;12.85;;;;;;;-3.22;83.60547;92784.59;;;;
2020/12/04 04:34:50;;;;;;;25.7;12.85;;;;;;;-3.22;83.60547;92784.59;;;;
2020/12/04 04:35:51;;;;;;;25.7;12.85;;;;;;;-3.22;83.60547;92784.59;;;;
2020/12/04 04:36:52;;;;;;;25.7;12.85;;;;;;;-3.22;83.60547;92784.59;;;;
2020/12/04 04:37:52;;;;;;;25.7;12.85;;;;;;;-3.22;83.60547;92784.59;;;;
2020/12/04 04:38:53;;;;;;;25.7;12.85;;;;;;;-3.22;83.60547;92784.59;;;;
2020/12/04 04:39:53;;;;;;;26.2;13.25;;;;;;;-3.09;83.52441;92781.58;;;;
2020/12/04 04:40:54;;;;;;;26.2;13.25;;;;;;;-3.09;83.52441;92781.58;;;;
2020/12/04 04:41:55;;;;;;;26.2;13.25;;;;;;;-3.09;83.52441;92781.58;;;;
2020/12/04 04:42:56;;;;;;;26.2;13.25;;;;;;;-3.09;83.52441;92781.58;;;;
2020/12/04 04:44:13;;;;;;;26.2;13.25;;;;;;;-3.09;83.52441;92781.58;;;;
2020/12/04 04:45:14;;;;;;;26.2;13.25;;;;;;;-3.09;83.52441;92781.58;;;;
2020/12/04 04:46:16;;;;;;;26.2;13.25;;;;;;;-3.09;83.52441;92781.58;;;;
2020/12/04 04:47:19;;;;;;;26.2;13.25;;;;;;;-3.09;83.52441;92781.58;;;;
2020/12/04 04:48:24;;;;;;;26.2;13.25;;;;;;;-3.09;83.52441;92781.58;;;;
2020/12/04 04:49:27;;;;;;;26.2;13.25;;;;;;;-3.09;83.52441;92781.58;;;;
2020/12/04 04:50:31;;;;;;;26.95;13.45;;;;;;;-2.98;83.49707;92783.4;;;;
2020/12/04 04:51:34;;;;;;;26.95;13.45;;;;;;;-2.98;83.49707;92783.4;;;;
2020/12/04 04:52:39;;;;;;;26.95;13.45;;;;;;;-2.98;83.49707;92783.4;;;;
2020/12/04 04:53:40;;;;;;;26.95;13.45;;;;;;;-2.98;83.49707;92783.4;;;;
2020/12/04 04:54:44;;;;;;;26.95;13.45;;;;;;;-2.98;83.49707;92783.4;;;;
2020/12/04 04:55:46;;;;;;;26.95;13.45;;;;;;;-2.98;83.49707;92783.4;;;;
2020/12/04 04:56:47;;;;;;;26.95;13.45;;;;;;;-2.98;83.49707;92783.4;;;;
2020/12/04 04:57:49;;;;;;;26.95;13.45;;;;;;;-2.98;83.49707;92783.4;;;;
2020/12/04 04:58:49;;;;;;;26.95;13.45;;;;;;;-2.98;83.49707;92783.4;;;;
2020/12/04 04:59:50;;;;;;;26.95;13.45;;;;;;;-2.98;83.49707;92783.4;;;;
2020/12/04 05:00:52;;;;;;;24.9;12.6;;;;;;;-2.87;83.50684;92781.47;;;;
2020/12/04 05:01:53;;;;;;;24.9;12.6;;;;;;;-2.87;83.50684;92781.47;;;;
2020/12/04 05:02:53;;;;;;;24.9;12.6;;;;;;;-2.87;83.50684;92781.47;;;;
2020/12/04 05:03:54;;;;;;;24.9;12.6;;;;;;;-2.87;83.50684;92781.47;;;;
2020/12/04 05:04:56;;;;;;;24.9;12.6;;;;;;;-2.87;83.50684;92781.47;;;;
2020/12/04 05:05:57;;;;;;;24.9;12.6;;;;;;;-2.87;83.50684;92781.47;;;;
2020/12/04 05:06:57;;;;;;;24.9;12.6;;;;;;;-2.87;83.50684;92781.47;;;;
2020/12/04 05:07:58;;;;;;;24.9;12.6;;;;;;;-2.87;83.50684;92781.47;;;;
2020/12/04 05:09:10;;;;;;;24.9;12.6;;;;;;;-2.87;83.50684;92781.47;;;;
2020/12/04 05:10:15;;;;;;;24.9;12.6;;;;;;;-2.87;83.50684;92781.47;;;;
2020/12/04 05:11:18;;;;;;;24.3;12;;;;;;;-2.89;83.51367;92772.05;;;;
2020/12/04 05:12:18;;;;;;;24.3;12;;;;;;;-2.89;83.51367;92772.05;;;;
2020/12/04 05:13:19;;;;;;;24.3;12;;;;;;;-2.89;83.51367;92772.05;;;;
2020/12/04 05:14:23;;;;;;;24.3;12;;;;;;;-2.89;83.51367;92772.05;;;;
2020/12/04 05:15:24;;;;;;;24.3;12;;;;;;;-2.89;83.51367;92772.05;;;;
2020/12/04 05:16:26;;;;;;;24.3;12;;;;;;;-2.89;83.51367;92772.05;;;;
2020/12/04 05:17:28;;;;;;;24.3;12;;;;;;;-2.89;83.51367;92772.05;;;;
2020/12/04 05:18:28;;;;;;;24.3;12;;;;;;;-2.89;83.51367;92772.05;;;;
2020/12/04 05:19:29;;;;;;;24.3;12;;;;;;;-2.89;83.51367;92772.05;;;;
2020/12/04 05:20:31;;;;;;;24.3;12;;;;;;;-2.89;83.51367;92772.05;;;;
2020/12/04 05:21:34;;;;;;;24.3;12;;;;;;;-2.89;83.51367;92772.05;;;;
2020/12/04 05:22:36;;;;;;;23.3;11.5;;;;;;;-2.94;83.73145;92766.11;;;;
2020/12/04 05:23:37;;;;;;;23.3;11.5;;;;;;;-2.94;83.73145;92766.11;;;;
2020/12/04 05:24:49;;;;;;;23.3;11.5;;;;;;;-2.94;83.73145;92766.11;;;;
2020/12/04 05:25:50;;;;;;;23.3;11.5;;;;;;;-2.94;83.73145;92766.11;;;;
2020/12/04 05:26:52;;;;;;;23.3;11.5;;;;;;;-2.94;83.73145;92766.11;;;;
2020/12/04 05:27:53;;;;;;;23.3;11.5;;;;;;;-2.94;83.73145;92766.11;;;;
2020/12/04 05:29:06;;;;;;;23.3;11.5;;;;;;;-2.94;83.73145;92766.11;;;;
2020/12/04 05:30:06;;;;;;;23.3;11.5;;;;;;;-2.94;83.73145;92766.11;;;;
2020/12/04 05:31:07;;;;;;;23.3;11.5;;;;;;;-2.94;83.73145;92766.11;;;;
2020/12/04 05:32:09;;;;;;;23.3;11.5;;;;;;;-2.94;83.73145;92766.11;;;;
2020/12/04 05:33:14;;;;;;;20.95;10.7;;;;;;;-2.84;83.89746;92782.26;;;;
2020/12/04 05:34:14;;;;;;;20.95;10.7;;;;;;;-2.84;83.89746;92782.26;;;;
2020/12/04 05:35:19;;;;;;;20.95;10.7;;;;;;;-2.84;83.89746;92782.26;;;;
2020/12/04 05:36:20;;;;;;;20.95;10.7;;;;;;;-2.84;83.89746;92782.26;;;;
2020/12/04 05:37:24;;;;;;;20.95;10.7;;;;;;;-2.84;83.89746;92782.26;;;;
2020/12/04 05:38:25;;;;;;;20.95;10.7;;;;;;;-2.84;83.89746;92782.26;;;;
2020/12/04 05:39:25;;;;;;;20.95;10.7;;;;;;;-2.84;83.89746;92782.26;;;;
2020/12/04 05:40:40;;;;;;;20.95;10.7;;;;;;;-2.84;83.89746;92782.26;;;;
2020/12/04 05:41:43;;;;;;;20.95;10.7;;;;;;;-2.84;83.89746;92782.26;;;;
2020/12/04 05:42:45;;;;;;;20.95;10.7;;;;;;;-2.84;83.89746;92782.26;;;;
2020/12/04 05:43:46;;;;;;;21.75;10.7;;;;;;;-2.65;83.85156;92778.23;;;;